sensor_id;sensor_type;location;lat;lon;timestamp;P1;durP1;ratioP1;P2;durP2;ratioP2
64710;SDS011;51139;45.626;6.850;2023-05-24T00:02:20;8.60;;;6.30;;
64710;SDS011;51139;45.626;6.850;2023-05-24T00:04:47;8.38;;;6.00;;
64710;SDS011;51139;45.626;6.850;2023-05-24T00:07:13;7.63;;;5.60;;
64710;SDS011;51139;45.626;6.850;2023-05-24T00:09:40;9.05;;;5.82;;
64710;SDS011;51139;45.626;6.850;2023-05-24T00:12:06;8.70;;;5.60;;
64710;SDS011;51139;45.626;6.850;2023-05-24T00:14:32;7.22;;;5.32;;
64710;SDS011;51139;45.626;6.850;2023-05-24T00:16:57;7.57;;;5.85;;
64710;SDS011;51139;45.626;6.850;2023-05-24T00:19:22;6.68;;;5.22;;
64710;SDS011;51139;45.626;6.850;2023-05-24T00:21:48;7.07;;;5.38;;
64710;SDS011;51139;45.626;6.850;2023-05-24T00:24:14;8.10;;;5.90;;
64710;SDS011;51139;45.626;6.850;2023-05-24T00:26:41;9.93;;;6.65;;
64710;SDS011;51139;45.626;6.850;2023-05-24T00:29:06;10.15;;;6.47;;
64710;SDS011;51139;45.626;6.850;2023-05-24T00:31:32;8.82;;;6.50;;
64710;SDS011;51139;45.626;6.850;2023-05-24T00:33:57;10.00;;;5.95;;
64710;SDS011;51139;45.626;6.850;2023-05-24T00:36:23;8.70;;;5.93;;
64710;SDS011;51139;45.626;6.850;2023-05-24T00:38:48;9.52;;;6.38;;
64710;SDS011;51139;45.626;6.850;2023-05-24T00:41:14;9.85;;;6.97;;
64710;SDS011;51139;45.626;6.850;2023-05-24T00:43:39;13.32;;;7.93;;
64710;SDS011;51139;45.626;6.850;2023-05-24T00:48:40;42.58;;;12.38;;
64710;SDS011;51139;45.626;6.850;2023-05-24T00:51:07;12.80;;;9.75;;
64710;SDS011;51139;45.626;6.850;2023-05-24T00:53:32;14.00;;;9.20;;
64710;SDS011;51139;45.626;6.850;2023-05-24T00:56:00;15.68;;;8.68;;
64710;SDS011;51139;45.626;6.850;2023-05-24T00:58:27;8.80;;;6.75;;
64710;SDS011;51139;45.626;6.850;2023-05-24T01:00:56;11.57;;;6.80;;
64710;SDS011;51139;45.626;6.850;2023-05-24T01:03:23;9.38;;;5.70;;
64710;SDS011;51139;45.626;6.850;2023-05-24T01:05:53;8.55;;;5.35;;
64710;SDS011;51139;45.626;6.850;2023-05-24T01:08:25;6.43;;;4.80;;
64710;SDS011;51139;45.626;6.850;2023-05-24T01:10:58;7.10;;;4.68;;
64710;SDS011;51139;45.626;6.850;2023-05-24T01:16:23;7.25;;;4.75;;
64710;SDS011;51139;45.626;6.850;2023-05-24T01:18:56;7.43;;;5.70;;
64710;SDS011;51139;45.626;6.850;2023-05-24T01:27:12;11.15;;;7.72;;
64710;SDS011;51139;45.626;6.850;2023-05-24T01:29:39;14.25;;;8.05;;
64710;SDS011;51139;45.626;6.850;2023-05-24T01:32:04;9.27;;;7.35;;
64710;SDS011;51139;45.626;6.850;2023-05-24T01:34:31;10.70;;;7.00;;
64710;SDS011;51139;45.626;6.850;2023-05-24T01:36:56;9.60;;;6.57;;
64710;SDS011;51139;45.626;6.850;2023-05-24T01:39:23;8.45;;;6.60;;
64710;SDS011;51139;45.626;6.850;2023-05-24T01:44:39;11.15;;;7.38;;
64710;SDS011;51139;45.626;6.850;2023-05-24T01:49:56;12.88;;;9.27;;
64710;SDS011;51139;45.626;6.850;2023-05-24T01:52:27;14.85;;;10.35;;
64710;SDS011;51139;45.626;6.850;2023-05-24T01:54:57;12.65;;;8.52;;
64710;SDS011;51139;45.626;6.850;2023-05-24T01:57:24;10.60;;;6.65;;
64710;SDS011;51139;45.626;6.850;2023-05-24T01:59:51;10.00;;;6.45;;
64710;SDS011;51139;45.626;6.850;2023-05-24T02:02:18;5.40;;;3.85;;
64710;SDS011;51139;45.626;6.850;2023-05-24T02:04:44;5.45;;;3.90;;
64710;SDS011;51139;45.626;6.850;2023-05-24T02:07:10;7.53;;;4.07;;
64710;SDS011;51139;45.626;6.850;2023-05-24T02:09:36;6.45;;;4.40;;
64710;SDS011;51139;45.626;6.850;2023-05-24T02:12:01;7.88;;;4.88;;
64710;SDS011;51139;45.626;6.850;2023-05-24T02:14:26;5.20;;;3.80;;
64710;SDS011;51139;45.626;6.850;2023-05-24T02:16:52;6.65;;;3.60;;
64710;SDS011;51139;45.626;6.850;2023-05-24T02:19:22;4.10;;;2.95;;
64710;SDS011;51139;45.626;6.850;2023-05-24T02:21:48;4.45;;;3.00;;
64710;SDS011;51139;45.626;6.850;2023-05-24T02:24:13;4.57;;;2.88;;
64710;SDS011;51139;45.626;6.850;2023-05-24T02:26:39;6.10;;;3.85;;
64710;SDS011;51139;45.626;6.850;2023-05-24T02:29:04;6.05;;;4.13;;
64710;SDS011;51139;45.626;6.850;2023-05-24T02:31:30;6.97;;;4.00;;
64710;SDS011;51139;45.626;6.850;2023-05-24T02:33:55;4.95;;;3.25;;
64710;SDS011;51139;45.626;6.850;2023-05-24T02:36:21;4.90;;;3.50;;
64710;SDS011;51139;45.626;6.850;2023-05-24T02:38:47;5.07;;;3.58;;
64710;SDS011;51139;45.626;6.850;2023-05-24T02:41:13;6.30;;;3.75;;
64710;SDS011;51139;45.626;6.850;2023-05-24T02:43:42;6.22;;;3.50;;
64710;SDS011;51139;45.626;6.850;2023-05-24T02:46:10;4.70;;;3.72;;
64710;SDS011;51139;45.626;6.850;2023-05-24T02:48:36;5.18;;;3.50;;
64710;SDS011;51139;45.626;6.850;2023-05-24T02:51:01;5.43;;;3.42;;
64710;SDS011;51139;45.626;6.850;2023-05-24T02:53:30;5.25;;;3.63;;
64710;SDS011;51139;45.626;6.850;2023-05-24T02:55:57;5.13;;;3.70;;
64710;SDS011;51139;45.626;6.850;2023-05-24T02:58:22;5.95;;;3.90;;
64710;SDS011;51139;45.626;6.850;2023-05-24T03:00:48;6.20;;;3.97;;
64710;SDS011;51139;45.626;6.850;2023-05-24T03:03:14;6.15;;;4.75;;
64710;SDS011;51139;45.626;6.850;2023-05-24T03:05:40;7.35;;;4.82;;
64710;SDS011;51139;45.626;6.850;2023-05-24T03:08:05;6.32;;;4.57;;
64710;SDS011;51139;45.626;6.850;2023-05-24T03:10:31;7.30;;;4.82;;
64710;SDS011;51139;45.626;6.850;2023-05-24T03:12:56;6.95;;;4.60;;
64710;SDS011;51139;45.626;6.850;2023-05-24T03:15:22;6.05;;;4.78;;
64710;SDS011;51139;45.626;6.850;2023-05-24T03:17:47;8.43;;;5.15;;
64710;SDS011;51139;45.626;6.850;2023-05-24T03:20:13;7.40;;;5.40;;
64710;SDS011;51139;45.626;6.850;2023-05-24T03:22:39;8.45;;;5.63;;
64710;SDS011;51139;45.626;6.850;2023-05-24T03:25:05;8.13;;;5.82;;
64710;SDS011;51139;45.626;6.850;2023-05-24T03:27:32;7.25;;;4.90;;
64710;SDS011;51139;45.626;6.850;2023-05-24T03:29:58;9.88;;;5.63;;
64710;SDS011;51139;45.626;6.850;2023-05-24T03:32:23;7.70;;;5.28;;
64710;SDS011;51139;45.626;6.850;2023-05-24T03:34:49;6.97;;;4.70;;
64710;SDS011;51139;45.626;6.850;2023-05-24T03:37:14;5.28;;;3.75;;
64710;SDS011;51139;45.626;6.850;2023-05-24T03:39:40;5.50;;;3.60;;
64710;SDS011;51139;45.626;6.850;2023-05-24T03:42:05;5.18;;;3.20;;
64710;SDS011;51139;45.626;6.850;2023-05-24T03:44:31;4.85;;;3.33;;
64710;SDS011;51139;45.626;6.850;2023-05-24T03:46:56;4.30;;;2.92;;
64710;SDS011;51139;45.626;6.850;2023-05-24T03:49:21;5.15;;;3.78;;
64710;SDS011;51139;45.626;6.850;2023-05-24T03:51:47;5.88;;;4.15;;
64710;SDS011;51139;45.626;6.850;2023-05-24T03:54:12;7.82;;;5.50;;
64710;SDS011;51139;45.626;6.850;2023-05-24T03:56:37;6.80;;;4.60;;
64710;SDS011;51139;45.626;6.850;2023-05-24T03:59:03;5.70;;;4.78;;
64710;SDS011;51139;45.626;6.850;2023-05-24T04:01:29;6.13;;;4.50;;
64710;SDS011;51139;45.626;6.850;2023-05-24T04:03:57;5.18;;;3.78;;
64710;SDS011;51139;45.626;6.850;2023-05-24T04:06:23;4.43;;;3.40;;
64710;SDS011;51139;45.626;6.850;2023-05-24T04:08:56;4.25;;;3.25;;
64710;SDS011;51139;45.626;6.850;2023-05-24T04:11:22;5.38;;;3.42;;
64710;SDS011;51139;45.626;6.850;2023-05-24T04:13:48;5.25;;;3.70;;
64710;SDS011;51139;45.626;6.850;2023-05-24T04:16:16;6.10;;;3.20;;
64710;SDS011;51139;45.626;6.850;2023-05-24T04:18:42;4.85;;;3.30;;
64710;SDS011;51139;45.626;6.850;2023-05-24T04:21:09;5.03;;;3.50;;
64710;SDS011;51139;45.626;6.850;2023-05-24T04:23:34;6.75;;;3.60;;
64710;SDS011;51139;45.626;6.850;2023-05-24T04:26:00;5.57;;;3.90;;
64710;SDS011;51139;45.626;6.850;2023-05-24T04:28:25;5.63;;;3.85;;
64710;SDS011;51139;45.626;6.850;2023-05-24T04:30:51;7.00;;;4.47;;
64710;SDS011;51139;45.626;6.850;2023-05-24T04:33:16;5.10;;;4.03;;
64710;SDS011;51139;45.626;6.850;2023-05-24T04:35:41;5.63;;;3.78;;
64710;SDS011;51139;45.626;6.850;2023-05-24T04:38:08;5.80;;;3.55;;
64710;SDS011;51139;45.626;6.850;2023-05-24T04:40:36;5.43;;;3.60;;
64710;SDS011;51139;45.626;6.850;2023-05-24T04:43:02;5.93;;;3.53;;
64710;SDS011;51139;45.626;6.850;2023-05-24T04:45:28;4.97;;;3.85;;
64710;SDS011;51139;45.626;6.850;2023-05-24T04:47:54;5.68;;;3.47;;
64710;SDS011;51139;45.626;6.850;2023-05-24T04:50:21;5.32;;;3.72;;
64710;SDS011;51139;45.626;6.850;2023-05-24T04:52:46;6.43;;;5.03;;
64710;SDS011;51139;45.626;6.850;2023-05-24T04:55:11;5.00;;;3.80;;
64710;SDS011;51139;45.626;6.850;2023-05-24T04:57:37;7.75;;;5.53;;
64710;SDS011;51139;45.626;6.850;2023-05-24T05:00:02;6.57;;;4.88;;
64710;SDS011;51139;45.626;6.850;2023-05-24T05:02:28;8.80;;;6.05;;
64710;SDS011;51139;45.626;6.850;2023-05-24T05:04:55;8.82;;;5.30;;
64710;SDS011;51139;45.626;6.850;2023-05-24T05:07:20;7.10;;;5.38;;
64710;SDS011;51139;45.626;6.850;2023-05-24T05:09:46;9.77;;;6.97;;
64710;SDS011;51139;45.626;6.850;2023-05-24T05:12:12;8.90;;;6.55;;
64710;SDS011;51139;45.626;6.850;2023-05-24T05:14:37;8.32;;;6.03;;
64710;SDS011;51139;45.626;6.850;2023-05-24T05:17:03;7.68;;;5.60;;
64710;SDS011;51139;45.626;6.850;2023-05-24T05:19:29;7.90;;;5.50;;
64710;SDS011;51139;45.626;6.850;2023-05-24T05:21:54;8.65;;;5.15;;
64710;SDS011;51139;45.626;6.850;2023-05-24T05:24:20;8.57;;;5.63;;
64710;SDS011;51139;45.626;6.850;2023-05-24T05:26:45;6.82;;;5.00;;
64710;SDS011;51139;45.626;6.850;2023-05-24T05:29:11;7.43;;;4.78;;
64710;SDS011;51139;45.626;6.850;2023-05-24T05:31:36;7.20;;;4.95;;
64710;SDS011;51139;45.626;6.850;2023-05-24T05:34:03;6.43;;;4.57;;
64710;SDS011;51139;45.626;6.850;2023-05-24T05:36:29;6.50;;;4.20;;
64710;SDS011;51139;45.626;6.850;2023-05-24T05:38:54;4.80;;;3.60;;
64710;SDS011;51139;45.626;6.850;2023-05-24T05:41:19;4.68;;;3.30;;
64710;SDS011;51139;45.626;6.850;2023-05-24T05:43:45;5.78;;;4.13;;
64710;SDS011;51139;45.626;6.850;2023-05-24T05:46:10;6.40;;;3.88;;
64710;SDS011;51139;45.626;6.850;2023-05-24T05:48:37;6.30;;;3.90;;
64710;SDS011;51139;45.626;6.850;2023-05-24T05:51:02;6.47;;;4.18;;
64710;SDS011;51139;45.626;6.850;2023-05-24T05:53:28;5.47;;;3.97;;
64710;SDS011;51139;45.626;6.850;2023-05-24T05:55:53;5.35;;;4.03;;
64710;SDS011;51139;45.626;6.850;2023-05-24T05:58:18;7.15;;;3.78;;
64710;SDS011;51139;45.626;6.850;2023-05-24T06:00:44;5.03;;;3.42;;
64710;SDS011;51139;45.626;6.850;2023-05-24T06:03:09;5.35;;;3.63;;
64710;SDS011;51139;45.626;6.850;2023-05-24T06:05:34;4.75;;;3.45;;
64710;SDS011;51139;45.626;6.850;2023-05-24T06:08:00;5.43;;;3.85;;
64710;SDS011;51139;45.626;6.850;2023-05-24T06:10:26;6.07;;;4.15;;
64710;SDS011;51139;45.626;6.850;2023-05-24T06:12:52;6.45;;;4.20;;
64710;SDS011;51139;45.626;6.850;2023-05-24T06:15:17;5.68;;;4.10;;
64710;SDS011;51139;45.626;6.850;2023-05-24T06:17:46;5.68;;;4.00;;
64710;SDS011;51139;45.626;6.850;2023-05-24T06:20:12;8.27;;;4.80;;
64710;SDS011;51139;45.626;6.850;2023-05-24T06:22:39;7.78;;;4.18;;
64710;SDS011;51139;45.626;6.850;2023-05-24T06:25:06;5.47;;;4.05;;
64710;SDS011;51139;45.626;6.850;2023-05-24T06:27:33;5.32;;;3.45;;
64710;SDS011;51139;45.626;6.850;2023-05-24T06:29:58;5.88;;;3.50;;
64710;SDS011;51139;45.626;6.850;2023-05-24T06:32:23;5.55;;;3.70;;
64710;SDS011;51139;45.626;6.850;2023-05-24T06:34:49;4.38;;;3.13;;
64710;SDS011;51139;45.626;6.850;2023-05-24T06:37:14;4.40;;;2.83;;
64710;SDS011;51139;45.626;6.850;2023-05-24T06:39:40;4.30;;;3.22;;
64710;SDS011;51139;45.626;6.850;2023-05-24T06:42:05;4.70;;;3.15;;
64710;SDS011;51139;45.626;6.850;2023-05-24T06:44:31;3.65;;;2.90;;
64710;SDS011;51139;45.626;6.850;2023-05-24T06:47:01;3.65;;;2.67;;
64710;SDS011;51139;45.626;6.850;2023-05-24T06:49:27;4.57;;;3.20;;
64710;SDS011;51139;45.626;6.850;2023-05-24T06:51:52;6.80;;;3.50;;
64710;SDS011;51139;45.626;6.850;2023-05-24T06:54:18;3.83;;;3.03;;
64710;SDS011;51139;45.626;6.850;2023-05-24T06:56:43;3.85;;;2.78;;
64710;SDS011;51139;45.626;6.850;2023-05-24T06:59:09;3.28;;;2.25;;
64710;SDS011;51139;45.626;6.850;2023-05-24T07:01:34;4.93;;;2.70;;
64710;SDS011;51139;45.626;6.850;2023-05-24T07:04:03;4.10;;;2.63;;
64710;SDS011;51139;45.626;6.850;2023-05-24T07:06:29;5.40;;;2.70;;
64710;SDS011;51139;45.626;6.850;2023-05-24T07:08:56;4.25;;;2.20;;
64710;SDS011;51139;45.626;6.850;2023-05-24T07:11:21;4.05;;;2.20;;
64710;SDS011;51139;45.626;6.850;2023-05-24T07:13:47;4.05;;;2.22;;
64710;SDS011;51139;45.626;6.850;2023-05-24T07:16:12;5.50;;;3.20;;
64710;SDS011;51139;45.626;6.850;2023-05-24T07:18:37;4.68;;;3.30;;
64710;SDS011;51139;45.626;6.850;2023-05-24T07:21:05;4.55;;;2.30;;
64710;SDS011;51139;45.626;6.850;2023-05-24T07:23:30;4.57;;;2.75;;
64710;SDS011;51139;45.626;6.850;2023-05-24T07:25:56;4.95;;;3.05;;
64710;SDS011;51139;45.626;6.850;2023-05-24T07:28:21;4.80;;;2.85;;
64710;SDS011;51139;45.626;6.850;2023-05-24T07:30:47;4.93;;;3.40;;
64710;SDS011;51139;45.626;6.850;2023-05-24T07:33:12;5.05;;;3.13;;
64710;SDS011;51139;45.626;6.850;2023-05-24T07:35:38;4.03;;;2.90;;
64710;SDS011;51139;45.626;6.850;2023-05-24T07:38:04;3.47;;;2.60;;
64710;SDS011;51139;45.626;6.850;2023-05-24T07:40:29;4.18;;;2.45;;
64710;SDS011;51139;45.626;6.850;2023-05-24T07:42:55;4.25;;;2.47;;
64710;SDS011;51139;45.626;6.850;2023-05-24T07:45:20;3.63;;;2.00;;
64710;SDS011;51139;45.626;6.850;2023-05-24T07:47:45;4.60;;;2.55;;
64710;SDS011;51139;45.626;6.850;2023-05-24T07:50:11;3.90;;;2.80;;
64710;SDS011;51139;45.626;6.850;2023-05-24T07:52:36;3.03;;;2.47;;
64710;SDS011;51139;45.626;6.850;2023-05-24T07:55:03;3.70;;;2.25;;
64710;SDS011;51139;45.626;6.850;2023-05-24T07:57:29;10.13;;;3.47;;
64710;SDS011;51139;45.626;6.850;2023-05-24T07:59:54;7.93;;;3.75;;
64710;SDS011;51139;45.626;6.850;2023-05-24T08:02:19;5.03;;;2.75;;
64710;SDS011;51139;45.626;6.850;2023-05-24T08:04:45;4.30;;;2.75;;
64710;SDS011;51139;45.626;6.850;2023-05-24T08:07:11;6.18;;;3.15;;
64710;SDS011;51139;45.626;6.850;2023-05-24T08:09:36;5.93;;;3.60;;
64710;SDS011;51139;45.626;6.850;2023-05-24T08:12:05;4.97;;;3.78;;
64710;SDS011;51139;45.626;6.850;2023-05-24T08:14:31;10.77;;;3.90;;
64710;SDS011;51139;45.626;6.850;2023-05-24T08:16:57;4.30;;;3.65;;
64710;SDS011;51139;45.626;6.850;2023-05-24T08:19:25;6.57;;;4.25;;
64710;SDS011;51139;45.626;6.850;2023-05-24T08:21:51;5.80;;;3.65;;
64710;SDS011;51139;45.626;6.850;2023-05-24T08:24:17;5.43;;;3.70;;
64710;SDS011;51139;45.626;6.850;2023-05-24T08:26:42;4.65;;;2.60;;
64710;SDS011;51139;45.626;6.850;2023-05-24T08:29:07;3.47;;;2.80;;
64710;SDS011;51139;45.626;6.850;2023-05-24T08:31:33;5.28;;;2.35;;
64710;SDS011;51139;45.626;6.850;2023-05-24T08:33:58;4.20;;;2.60;;
64710;SDS011;51139;45.626;6.850;2023-05-24T08:36:23;3.75;;;2.20;;
64710;SDS011;51139;45.626;6.850;2023-05-24T08:38:49;4.00;;;2.38;;
64710;SDS011;51139;45.626;6.850;2023-05-24T08:41:15;4.53;;;2.47;;
64710;SDS011;51139;45.626;6.850;2023-05-24T08:43:43;4.15;;;2.80;;
64710;SDS011;51139;45.626;6.850;2023-05-24T08:46:11;4.15;;;3.17;;
64710;SDS011;51139;45.626;6.850;2023-05-24T08:48:43;4.15;;;2.40;;
64710;SDS011;51139;45.626;6.850;2023-05-24T08:51:09;5.35;;;2.92;;
64710;SDS011;51139;45.626;6.850;2023-05-24T08:53:35;5.82;;;2.90;;
64710;SDS011;51139;45.626;6.850;2023-05-24T08:56:02;5.72;;;3.55;;
64710;SDS011;51139;45.626;6.850;2023-05-24T08:58:29;5.07;;;3.17;;
64710;SDS011;51139;45.626;6.850;2023-05-24T09:00:55;3.92;;;3.30;;
64710;SDS011;51139;45.626;6.850;2023-05-24T09:03:22;4.80;;;3.75;;
64710;SDS011;51139;45.626;6.850;2023-05-24T09:05:48;5.15;;;3.47;;
64710;SDS011;51139;45.626;6.850;2023-05-24T09:08:14;5.50;;;3.58;;
64710;SDS011;51139;45.626;6.850;2023-05-24T09:10:42;4.28;;;3.45;;
64710;SDS011;51139;45.626;6.850;2023-05-24T09:13:08;5.20;;;3.53;;
64710;SDS011;51139;45.626;6.850;2023-05-24T09:15:35;5.07;;;3.67;;
64710;SDS011;51139;45.626;6.850;2023-05-24T09:18:00;4.35;;;3.33;;
64710;SDS011;51139;45.626;6.850;2023-05-24T09:20:26;4.55;;;2.80;;
64710;SDS011;51139;45.626;6.850;2023-05-24T09:22:51;4.35;;;3.25;;
64710;SDS011;51139;45.626;6.850;2023-05-24T09:25:18;4.82;;;3.33;;
64710;SDS011;51139;45.626;6.850;2023-05-24T09:27:50;5.20;;;3.67;;
64710;SDS011;51139;45.626;6.850;2023-05-24T09:30:17;4.40;;;3.35;;
64710;SDS011;51139;45.626;6.850;2023-05-24T09:32:52;5.70;;;3.30;;
64710;SDS011;51139;45.626;6.850;2023-05-24T09:35:22;5.03;;;3.53;;
64710;SDS011;51139;45.626;6.850;2023-05-24T09:37:48;5.22;;;3.40;;
64710;SDS011;51139;45.626;6.850;2023-05-24T09:40:17;3.90;;;2.90;;
64710;SDS011;51139;45.626;6.850;2023-05-24T09:42:46;6.63;;;2.88;;
64710;SDS011;51139;45.626;6.850;2023-05-24T09:45:15;3.30;;;2.60;;
64710;SDS011;51139;45.626;6.850;2023-05-24T09:47:41;4.20;;;2.85;;
64710;SDS011;51139;45.626;6.850;2023-05-24T09:50:12;5.13;;;3.28;;
64710;SDS011;51139;45.626;6.850;2023-05-24T09:52:39;4.10;;;2.78;;
64710;SDS011;51139;45.626;6.850;2023-05-24T09:57:38;5.45;;;3.47;;
64710;SDS011;51139;45.626;6.850;2023-05-24T10:00:04;8.18;;;3.58;;
64710;SDS011;51139;45.626;6.850;2023-05-24T10:02:38;4.80;;;3.25;;
64710;SDS011;51139;45.626;6.850;2023-05-24T10:05:03;5.30;;;3.42;;
64710;SDS011;51139;45.626;6.850;2023-05-24T10:07:30;5.68;;;3.47;;
64710;SDS011;51139;45.626;6.850;2023-05-24T10:09:58;6.35;;;3.65;;
64710;SDS011;51139;45.626;6.850;2023-05-24T10:12:24;6.22;;;3.63;;
64710;SDS011;51139;45.626;6.850;2023-05-24T10:14:50;4.43;;;3.45;;
64710;SDS011;51139;45.626;6.850;2023-05-24T10:17:16;3.70;;;2.90;;
64710;SDS011;51139;45.626;6.850;2023-05-24T10:19:42;5.40;;;3.40;;
64710;SDS011;51139;45.626;6.850;2023-05-24T10:22:08;4.68;;;3.20;;
64710;SDS011;51139;45.626;6.850;2023-05-24T10:24:37;5.03;;;3.17;;
64710;SDS011;51139;45.626;6.850;2023-05-24T10:27:06;4.72;;;3.08;;
64710;SDS011;51139;45.626;6.850;2023-05-24T10:29:47;3.80;;;2.90;;
64710;SDS011;51139;45.626;6.850;2023-05-24T10:32:23;6.00;;;3.22;;
64710;SDS011;51139;45.626;6.850;2023-05-24T10:34:55;5.00;;;3.30;;
64710;SDS011;51139;45.626;6.850;2023-05-24T10:37:23;4.03;;;2.88;;
64710;SDS011;51139;45.626;6.850;2023-05-24T10:39:50;4.78;;;3.08;;
64710;SDS011;51139;45.626;6.850;2023-05-24T10:42:16;4.90;;;2.97;;
64710;SDS011;51139;45.626;6.850;2023-05-24T10:44:42;4.13;;;2.55;;
64710;SDS011;51139;45.626;6.850;2023-05-24T10:47:10;4.35;;;3.38;;
64710;SDS011;51139;45.626;6.850;2023-05-24T10:49:38;4.07;;;3.20;;
64710;SDS011;51139;45.626;6.850;2023-05-24T10:52:11;6.00;;;3.20;;
64710;SDS011;51139;45.626;6.850;2023-05-24T10:54:37;4.15;;;2.65;;
64710;SDS011;51139;45.626;6.850;2023-05-24T10:57:03;4.72;;;3.30;;
64710;SDS011;51139;45.626;6.850;2023-05-24T10:59:36;6.20;;;3.83;;
64710;SDS011;51139;45.626;6.850;2023-05-24T11:02:04;6.80;;;3.35;;
64710;SDS011;51139;45.626;6.850;2023-05-24T11:04:40;6.03;;;3.72;;
64710;SDS011;51139;45.626;6.850;2023-05-24T11:07:15;4.43;;;3.30;;
64710;SDS011;51139;45.626;6.850;2023-05-24T11:09:44;6.45;;;3.33;;
64710;SDS011;51139;45.626;6.850;2023-05-24T11:12:13;4.75;;;3.22;;
64710;SDS011;51139;45.626;6.850;2023-05-24T11:14:46;5.45;;;3.10;;
64710;SDS011;51139;45.626;6.850;2023-05-24T11:17:14;4.70;;;3.40;;
64710;SDS011;51139;45.626;6.850;2023-05-24T11:19:47;5.07;;;3.35;;
64710;SDS011;51139;45.626;6.850;2023-05-24T11:22:14;5.28;;;3.40;;
64710;SDS011;51139;45.626;6.850;2023-05-24T11:24:40;4.20;;;3.20;;
64710;SDS011;51139;45.626;6.850;2023-05-24T11:27:06;4.38;;;2.75;;
64710;SDS011;51139;45.626;6.850;2023-05-24T11:29:32;4.35;;;2.75;;
64710;SDS011;51139;45.626;6.850;2023-05-24T11:32:04;4.60;;;3.20;;
64710;SDS011;51139;45.626;6.850;2023-05-24T11:34:31;4.63;;;2.80;;
64710;SDS011;51139;45.626;6.850;2023-05-24T11:36:58;3.63;;;2.28;;
64710;SDS011;51139;45.626;6.850;2023-05-24T11:39:30;4.32;;;2.08;;
64710;SDS011;51139;45.626;6.850;2023-05-24T11:41:57;3.55;;;1.85;;
64710;SDS011;51139;45.626;6.850;2023-05-24T11:44:23;2.08;;;1.50;;
64710;SDS011;51139;45.626;6.850;2023-05-24T11:46:55;2.03;;;1.50;;
64710;SDS011;51139;45.626;6.850;2023-05-24T11:49:21;5.03;;;1.90;;
64710;SDS011;51139;45.626;6.850;2023-05-24T11:51:46;4.25;;;1.80;;
64710;SDS011;51139;45.626;6.850;2023-05-24T11:54:12;3.53;;;1.95;;
64710;SDS011;51139;45.626;6.850;2023-05-24T11:56:37;3.58;;;1.30;;
64710;SDS011;51139;45.626;6.850;2023-05-24T11:59:12;4.32;;;1.88;;
64710;SDS011;51139;45.626;6.850;2023-05-24T12:01:39;6.90;;;2.00;;
64710;SDS011;51139;45.626;6.850;2023-05-24T12:04:05;4.35;;;1.90;;
64710;SDS011;51139;45.626;6.850;2023-05-24T12:06:34;3.78;;;2.05;;
64710;SDS011;51139;45.626;6.850;2023-05-24T12:09:01;4.95;;;2.13;;
64710;SDS011;51139;45.626;6.850;2023-05-24T12:11:29;3.58;;;2.22;;
64710;SDS011;51139;45.626;6.850;2023-05-24T12:13:56;4.95;;;2.40;;
64710;SDS011;51139;45.626;6.850;2023-05-24T12:16:22;4.82;;;2.40;;
64710;SDS011;51139;45.626;6.850;2023-05-24T12:18:48;4.15;;;2.35;;
64710;SDS011;51139;45.626;6.850;2023-05-24T12:21:16;10.18;;;3.03;;
64710;SDS011;51139;45.626;6.850;2023-05-24T12:23:41;48.88;;;7.35;;
64710;SDS011;51139;45.626;6.850;2023-05-24T12:26:06;44.95;;;5.68;;
64710;SDS011;51139;45.626;6.850;2023-05-24T12:28:33;13.15;;;4.00;;
64710;SDS011;51139;45.626;6.850;2023-05-24T12:31:00;4.45;;;2.72;;
64710;SDS011;51139;45.626;6.850;2023-05-24T12:33:26;5.72;;;2.60;;
64710;SDS011;51139;45.626;6.850;2023-05-24T12:35:52;4.13;;;2.50;;
64710;SDS011;51139;45.626;6.850;2023-05-24T12:38:18;4.18;;;2.65;;
64710;SDS011;51139;45.626;6.850;2023-05-24T12:40:49;4.38;;;2.53;;
64710;SDS011;51139;45.626;6.850;2023-05-24T12:43:15;3.35;;;2.15;;
64710;SDS011;51139;45.626;6.850;2023-05-24T12:45:41;4.57;;;2.35;;
64710;SDS011;51139;45.626;6.850;2023-05-24T12:48:06;3.80;;;1.95;;
64710;SDS011;51139;45.626;6.850;2023-05-24T12:50:32;3.42;;;2.40;;
64710;SDS011;51139;45.626;6.850;2023-05-24T12:52:58;3.90;;;2.45;;
64710;SDS011;51139;45.626;6.850;2023-05-24T12:55:25;4.22;;;2.72;;
64710;SDS011;51139;45.626;6.850;2023-05-24T12:57:51;5.20;;;2.92;;
64710;SDS011;51139;45.626;6.850;2023-05-24T13:00:21;5.35;;;3.00;;
64710;SDS011;51139;45.626;6.850;2023-05-24T13:02:56;4.70;;;3.05;;
64710;SDS011;51139;45.626;6.850;2023-05-24T13:05:26;4.55;;;2.97;;
64710;SDS011;51139;45.626;6.850;2023-05-24T13:07:53;5.70;;;3.35;;
64710;SDS011;51139;45.626;6.850;2023-05-24T13:10:20;6.20;;;3.45;;
64710;SDS011;51139;45.626;6.850;2023-05-24T13:12:46;3.78;;;3.00;;
64710;SDS011;51139;45.626;6.850;2023-05-24T13:15:12;5.68;;;3.60;;
64710;SDS011;51139;45.626;6.850;2023-05-24T13:17:39;4.97;;;2.63;;
64710;SDS011;51139;45.626;6.850;2023-05-24T13:20:05;5.90;;;2.38;;
64710;SDS011;51139;45.626;6.850;2023-05-24T13:22:34;4.18;;;2.70;;
64710;SDS011;51139;45.626;6.850;2023-05-24T13:25:01;4.22;;;2.65;;
64710;SDS011;51139;45.626;6.850;2023-05-24T13:27:27;4.18;;;2.80;;
64710;SDS011;51139;45.626;6.850;2023-05-24T13:29:52;3.67;;;2.50;;
64710;SDS011;51139;45.626;6.850;2023-05-24T13:32:18;3.53;;;2.63;;
64710;SDS011;51139;45.626;6.850;2023-05-24T13:34:43;3.92;;;2.70;;
64710;SDS011;51139;45.626;6.850;2023-05-24T13:37:08;3.60;;;2.30;;
64710;SDS011;51139;45.626;6.850;2023-05-24T13:39:34;4.53;;;2.60;;
64710;SDS011;51139;45.626;6.850;2023-05-24T13:42:00;4.13;;;2.10;;
64710;SDS011;51139;45.626;6.850;2023-05-24T13:44:26;3.97;;;2.28;;
64710;SDS011;51139;45.626;6.850;2023-05-24T13:46:52;3.67;;;2.28;;
64710;SDS011;51139;45.626;6.850;2023-05-24T13:49:18;4.22;;;2.90;;
64710;SDS011;51139;45.626;6.850;2023-05-24T13:51:44;3.90;;;2.95;;
64710;SDS011;51139;45.626;6.850;2023-05-24T13:54:10;4.78;;;2.90;;
64710;SDS011;51139;45.626;6.850;2023-05-24T13:56:36;5.68;;;2.75;;
64710;SDS011;51139;45.626;6.850;2023-05-24T13:59:03;4.50;;;2.60;;
64710;SDS011;51139;45.626;6.850;2023-05-24T14:01:30;5.88;;;3.05;;
64710;SDS011;51139;45.626;6.850;2023-05-24T14:03:55;4.30;;;2.70;;
64710;SDS011;51139;45.626;6.850;2023-05-24T14:06:21;3.65;;;2.53;;
64710;SDS011;51139;45.626;6.850;2023-05-24T14:08:47;4.03;;;2.83;;
64710;SDS011;51139;45.626;6.850;2023-05-24T14:11:12;4.55;;;2.70;;
64710;SDS011;51139;45.626;6.850;2023-05-24T14:13:41;4.22;;;2.70;;
64710;SDS011;51139;45.626;6.850;2023-05-24T14:16:07;3.92;;;2.50;;
64710;SDS011;51139;45.626;6.850;2023-05-24T14:18:33;4.00;;;2.50;;
64710;SDS011;51139;45.626;6.850;2023-05-24T14:20:59;4.28;;;2.30;;
64710;SDS011;51139;45.626;6.850;2023-05-24T14:23:24;3.67;;;2.25;;
64710;SDS011;51139;45.626;6.850;2023-05-24T14:25:50;4.35;;;2.58;;
64710;SDS011;51139;45.626;6.850;2023-05-24T14:28:16;2.88;;;1.80;;
64710;SDS011;51139;45.626;6.850;2023-05-24T14:30:42;2.72;;;1.88;;
64710;SDS011;51139;45.626;6.850;2023-05-24T14:33:08;2.72;;;2.10;;
64710;SDS011;51139;45.626;6.850;2023-05-24T14:35:35;3.70;;;2.15;;
64710;SDS011;51139;45.626;6.850;2023-05-24T14:38:04;4.05;;;2.50;;
64710;SDS011;51139;45.626;6.850;2023-05-24T14:40:30;4.85;;;2.65;;
64710;SDS011;51139;45.626;6.850;2023-05-24T14:42:58;4.28;;;2.60;;
64710;SDS011;51139;45.626;6.850;2023-05-24T14:45:34;5.47;;;2.53;;
64710;SDS011;51139;45.626;6.850;2023-05-24T14:47:59;5.28;;;2.70;;
64710;SDS011;51139;45.626;6.850;2023-05-24T14:50:26;4.43;;;2.85;;
64710;SDS011;51139;45.626;6.850;2023-05-24T14:52:51;4.15;;;2.53;;
64710;SDS011;51139;45.626;6.850;2023-05-24T14:55:17;3.22;;;1.85;;
64710;SDS011;51139;45.626;6.850;2023-05-24T14:57:43;3.85;;;2.25;;
64710;SDS011;51139;45.626;6.850;2023-05-24T15:00:08;2.75;;;1.80;;
64710;SDS011;51139;45.626;6.850;2023-05-24T15:02:34;2.60;;;1.80;;
64710;SDS011;51139;45.626;6.850;2023-05-24T15:05:00;2.97;;;2.30;;